Briefing drone pour Ugine

Rechercher une autre localisation

Conditions de vol :


Nous sommes le : Mardi 27 septembre 2022
Il est 20:47 UTC (22:47 LT)

Lever de soleil : 05:00 UTC (07:00 LT)
Coucher de soleil : 17:49 UTC (19:49 LT)

Météo

L'essentiel des conditions de vol

VIGILANCE MÉTÉO FRANCE - Savoie (73)
Pas de vigilances particulieres
METAR de LFLP
LFLP 272030Z AUTO 15004KT 120V180 9999 OVC042 11/08 Q1010

Date d'émission: 27/09/2022
Heure d'émission: 20:30 UTC
Vent: 150° (variable du 120° au 180°) pour 4 KT (7 km/h)
Visibilité horizontale: > 10 km
Plafond :
- Couvert à 4200ft (1280m)
Température: 11 °C
Point de rosée: 8 °C
Humidité: 82%
Pression (QNH): 1010 hPa
TAF de LFLP
AMD LFLP 271917Z 2719/2815 CNL

Conditions prévues :

Heure d'émission : Bulletin éffectué le 27 à 19:00 UTC
Prévision : Valide du 27 a 19:00 UTC au 28 a 15:00 UTC
Nuages : à 0ft (0 m)
WEBCAM POUR UGINE

Réglementation

Voler en sécurité

CARTES AERONAUTIQUE 1/500.000
CARTE AZBA (Reseau basse altitude)
CARTES VAC (LFLP)
SUP AIP




Chargement des AIP...
NOTAM (UGINE + Terrain à proximité / FIR )




Chargement des NOTAMS...
CONTACT PREFECTURE 73


Avertissement : Les données mises à disposition sont indicatives. Oxygène Drone ne pourra être tenu responsable de dégâts causés aux biens et aux personnes.